アスタナ の空港の天気 - METARとTAF

アスタナ国際空港 ( UACC / TSE ) - カザフスタン アスタナ
飛行場実況気象(Metar)
観測時間05/28 16:00 QYZT (05/28 11:00 UTC)
風向・風速東 2m/s
視程10km以上
天気現象弱いしゅう雨
全天の8割程度の雲 雲底高度 1520m
気温13℃
湿度82%
気圧1016hPa
METARUACC 281100Z 08002MPS 050V120 9999 -SHRA BKN050CB 13/10 Q1016 NOSIG RMK QFE731/0974
過去の天気等 Google飛行場航空写真 Wunderground天気予報

過去48時間のMETAR

飛行場予報(TAF)
発表時間: 5/28 16:04 QYZT (5/28 11:04 UTC)
予報対象時間: 28日17時 QYZT ~ 29日17時 QYZT
風向・風速南東 3m/s
視程10km以上
全天の4割程度の雲 雲底高度 610m
全天の8割程度の雲 雲底高度 910m
28日17時 QYZT ~ 28日19時 QYZT に一時的に
風向・風速東北東 3m/s
天気現象弱いしゅう雨
全天の8割程度の積乱雲 雲底高度 610m
28日22時 QYZT ~ 28日24時 QYZT に徐々に
風向・風速南西 3m/s
28日22時 QYZT ~ 29日7時 QYZT に一時的に
視程1000m
天気現象もや
全天の8割程度の雲 雲底高度 120m
29日7時 QYZT ~ 29日9時 QYZT に徐々に
風向・風速西北西 6m/s
TAF UACC 281104Z 2812/2912 14003MPS 9999 SCT020 BKN030 TX25/2910Z TN06/2823Z
TEMPO 2812/2814 06003MPS -SHRA BKN020CB
BECMG 2817/2819 23003MPS
TEMPO 2817/2902 1000 BR BKN004
BECMG 2902/2904 29006MPS